Impacts TAF Board INFO
FOR SITUATIONAL AWARENESS. NOT TO BE USED FOR FLIGHT PLANNING PURPOSES.
IDs:

KLAX - Los Angeles Intl, CA, US

Issued at 1435 UTC 23 Nov 2017
Updated at 1638 UTC 23 Nov 2017
Potential Impact None Slight Moderate High
Time1553Z 23/17Z 23/18Z 23/19Z 23/20Z 23/21Z 23/22Z 23/23Z 24/00Z 24/01Z 24/02Z 24/03Z 24/04Z 24/05Z>>
Type OBS PRVL PRVL PRVL PRVL PRVL PRVL PRVL PRVL PRVL PRVL PRVL PRVL PRVL
VIS 10 >6 >6 >6 >6 >6 >6 >6 >6 >6 >6 >6 >6 >6
CIG -- -- -- -- -- -- -- -- -- -- -- -- -- --
Cover FEW SKC SKC SKC SKC SCT SCT SCT SCT SCT SCT SCT SCT SCT
FltCat VFR VFR VFR VFR VFR VFR VFR VFR VFR VFR VFR VFR VFR VFR
WX -- -- -- -- -- -- -- -- -- -- -- -- -- --
WDir 50 60 60 60 60 270 270 270 270 270 270 270 VRB VRB
WSpd 3 5 5 5 5 8 8 8 8 8 8 8 3 3
WGst -- -- -- -- -- -- -- -- -- -- -- -- -- --

Raw TAF
KLAX 231435Z 2315/2418 06005KT P6SM SKC
  FM232100 27008KT P6SM SCT250
  FM240400 VRB03KT P6SM SCT250


Raw METAR
KLAX 231553Z 05003KT 10SM FEW100 FEW250 24/05 A3002 RMK AO2 SLP164 T02390050
KLAX 231453Z 06005KT 10SM FEW100 FEW250 22/04 A3001 RMK AO2 SLP161 T02170044 53004
KLAX 231353Z 05005KT 10SM FEW250 22/04 A3001 RMK AO2 SLP158 T02220044

METAR Board
Radar Display
Forecast Discussion

FOR SITUATIONAL AWARENESS. NOT TO BE USED FOR FLIGHT PLANNING PURPOSES.